Time;durP1;ratioP1;P1;durP2;ratioP2;P2;SDS_P1;SDS_P2;PMS_P1;PMS_P2;Temp;Humidity;BMP_temperature;BMP_pressure;BME280_temperature;BME280_humidity;BME280_pressure;Samples;Min_cycle;Max_cycle;Signal;HPM_P1;HPM_P2
2021/05/11 00:01:22;;;;;;;14.02;8.00;;;14.20;94.20;;;;;;5055905;28;20044;-72
2021/05/11 00:03:48;;;;;;;14.38;8.45;;;14.10;94.30;;;;;;5055658;28;20083;-72
2021/05/11 00:06:14;;;;;;;13.45;8.10;;;14.10;94.40;;;;;;5055092;28;20052;-72
2021/05/11 00:08:40;;;;;;;18.33;9.32;;;14.20;94.40;;;;;;5055757;28;20037;-72
2021/05/11 00:11:06;;;;;;;13.05;9.27;;;14.10;94.40;;;;;;5055352;28;20045;-72
2021/05/11 00:13:31;;;;;;;13.50;9.35;;;14.10;94.40;;;;;;5055285;28;20087;-72
2021/05/11 00:15:59;;;;;;;21.83;11.52;;;14.10;94.60;;;;;;5054842;28;20124;-72
2021/05/11 00:18:24;;;;;;;17.80;8.10;;;14.10;94.80;;;;;;5055126;28;20041;-72
2021/05/11 00:20:51;;;;;;;13.50;7.97;;;13.90;94.70;;;;;;5055326;28;20041;-72
2021/05/11 00:23:16;;;;;;;13.88;8.25;;;13.90;94.90;;;;;;5055159;28;20549;-72
2021/05/11 00:25:42;;;;;;;15.13;7.28;;;13.90;94.90;;;;;;5054688;28;20041;-72
2021/05/11 00:28:08;;;;;;;12.07;7.28;;;13.90;95.00;;;;;;5054854;28;20124;-72
2021/05/11 00:30:33;;;;;;;13.00;7.35;;;13.90;94.90;;;;;;5054824;28;20037;-72
2021/05/11 00:32:59;;;;;;;15.02;7.45;;;13.60;95.00;;;;;;5055595;28;20380;-72
2021/05/11 00:35:25;;;;;;;14.48;8.60;;;13.70;94.90;;;;;;5055181;28;20426;-72
2021/05/11 00:37:50;;;;;;;17.83;8.70;;;13.60;95.10;;;;;;5054722;28;20473;-72
2021/05/11 00:40:16;;;;;;;18.35;8.10;;;13.60;95.20;;;;;;5054989;28;20037;-72
2021/05/11 00:42:42;;;;;;;15.02;7.68;;;13.50;95.20;;;;;;5055020;28;20113;-72
2021/05/11 00:45:08;;;;;;;15.05;7.75;;;13.30;95.40;;;;;;5054341;28;20056;-72
2021/05/11 00:47:34;;;;;;;16.73;8.55;;;13.30;95.50;;;;;;5054658;28;20063;-72
2021/05/11 00:50:00;;;;;;;17.17;9.18;;;13.20;95.70;;;;;;5054349;28;20115;-72
2021/05/11 00:52:26;;;;;;;16.85;8.93;;;13.20;95.80;;;;;;5054649;28;20047;-72
2021/05/11 00:54:52;;;;;;;16.00;9.50;;;13.20;95.80;;;;;;5054108;28;20036;-72
2021/05/11 00:57:18;;;;;;;15.02;8.02;;;13.10;95.90;;;;;;5054336;28;20051;-72
2021/05/11 00:59:44;;;;;;;15.18;8.68;;;13.20;95.90;;;;;;5037109;28;20043;-72
2021/05/11 01:02:11;;;;;;;14.45;9.30;;;13.20;95.90;;;;;;5054925;28;20116;-72
2021/05/11 01:04:37;;;;;;;21.13;9.55;;;13.10;96.00;;;;;;5053890;28;20076;-72
2021/05/11 01:07:04;;;;;;;17.15;9.40;;;13.10;96.00;;;;;;5054290;28;20119;-72
2021/05/11 01:09:30;;;;;;;16.90;10.70;;;13.10;96.50;;;;;;5054404;28;20036;-72
2021/05/11 01:11:57;;;;;;;18.15;9.57;;;13.10;96.20;;;;;;5054531;28;20029;-72
2021/05/11 01:14:28;;;;;;;17.85;10.13;;;13.20;96.40;;;;;;5053680;28;20041;-73
2021/05/11 01:16:56;;;;;;;20.10;10.32;;;13.20;96.20;;;;;;5054371;28;20037;-72
2021/05/11 01:24:50;;;;;;;16.60;10.95;;;13.20;96.40;;;;;;5053250;28;20123;-72
2021/05/11 01:30:04;;;;;;;14.95;10.57;;;13.10;96.60;;;;;;5054190;28;20043;-72
2021/05/11 01:51:47;;;;;;;19.67;11.88;;;13.10;96.90;;;;;;5053706;28;20040;-72
2021/05/11 02:10:46;;;;;;;21.08;12.20;;;13.20;97.40;;;;;;5053500;28;20091;-72
2021/05/11 02:23:52;;;;;;;17.80;12.77;;;13.40;97.40;;;;;;5053358;28;20049;-72
2021/05/11 02:26:18;;;;;;;21.02;13.27;;;13.40;97.30;;;;;;5035047;28;20044;-72
2021/05/11 02:28:44;;;;;;;13.75;11.52;;;13.50;97.00;;;;;;5053325;28;20116;-72
2021/05/11 02:31:09;;;;;;;17.02;11.68;;;13.60;96.70;;;;;;5053012;28;20041;-72
2021/05/11 02:33:35;;;;;;;19.20;14.30;;;13.60;96.50;;;;;;5053170;28;20065;-72
2021/05/11 02:36:03;;;;;;;20.23;13.60;;;13.60;96.50;;;;;;5052987;28;20095;-72
2021/05/11 02:38:31;;;;;;;19.35;13.05;;;13.60;96.60;;;;;;5057065;28;20041;-72
2021/05/11 02:40:57;;;;;;;20.15;14.80;;;13.60;96.80;;;;;;5057141;28;20060;-72
2021/05/11 02:43:28;;;;;;;19.02;14.02;;;13.50;96.80;;;;;;5056859;28;20040;-72
2021/05/11 02:45:54;;;;;;;17.95;12.73;;;13.50;97.00;;;;;;5056790;28;20041;-72
2021/05/11 02:48:19;;;;;;;20.65;13.02;;;13.50;97.10;;;;;;5056707;28;20499;-72
2021/05/11 02:50:45;;;;;;;17.92;13.57;;;13.50;97.40;;;;;;5056705;28;20089;-72
2021/05/11 02:53:11;;;;;;;18.58;12.80;;;13.50;97.30;;;;;;5056739;28;20040;-72
2021/05/11 02:55:36;;;;;;;19.00;12.82;;;13.50;97.50;;;;;;5056478;28;20056;-71
2021/05/11 02:58:02;;;;;;;20.38;14.80;;;13.50;97.70;;;;;;5057013;28;20091;-71
2021/05/11 03:00:28;;;;;;;21.63;13.75;;;13.50;97.70;;;;;;5056558;28;20118;-71
2021/05/11 03:02:56;;;;;;;20.30;13.65;;;13.50;97.70;;;;;;5056550;28;20048;-71
2021/05/11 03:05:23;;;;;;;18.95;13.07;;;13.50;97.90;;;;;;5038831;28;20041;-72
2021/05/11 03:07:49;;;;;;;19.35;13.35;;;13.50;97.90;;;;;;5057026;28;20041;-71
2021/05/11 03:10:16;;;;;;;20.52;14.15;;;13.50;98.00;;;;;;5057030;28;20497;-71
2021/05/11 03:12:42;;;;;;;20.08;13.73;;;13.50;98.10;;;;;;5056623;28;20037;-71
2021/05/11 03:15:09;;;;;;;19.85;14.25;;;13.50;98.10;;;;;;5056030;28;20033;-71
2021/05/11 03:17:37;;;;;;;16.58;11.77;;;13.50;98.10;;;;;;5056827;28;20094;-71
2021/05/11 03:20:05;;;;;;;22.30;13.82;;;13.50;98.10;;;;;;5056853;28;20041;-71
2021/05/11 03:22:32;;;;;;;20.05;14.40;;;13.50;98.10;;;;;;5056553;28;20048;-71
2021/05/11 03:24:59;;;;;;;18.92;14.73;;;13.50;98.20;;;;;;5056131;28;20041;-71
2021/05/11 03:27:25;;;;;;;21.15;12.68;;;13.30;98.40;;;;;;5056527;28;20033;-71
2021/05/11 03:29:51;;;;;;;19.52;14.50;;;13.40;98.50;;;;;;5038319;28;20040;-71
2021/05/11 03:32:17;;;;;;;18.85;13.77;;;13.50;98.50;;;;;;5055963;28;20044;-71
2021/05/11 03:34:42;;;;;;;18.15;14.68;;;13.40;98.60;;;;;;5055738;28;20473;-72
2021/05/11 03:37:08;;;;;;;20.67;15.88;;;13.50;98.80;;;;;;5055836;28;20418;-71
2021/05/11 03:39:39;;;;;;;20.73;15.07;;;13.60;98.50;;;;;;5055874;28;20036;-71
2021/05/11 03:42:19;;;;;;;19.30;13.38;;;13.60;98.40;;;;;;5055811;28;20119;-71
2021/05/11 03:44:51;;;;;;;18.48;14.48;;;13.50;98.50;;;;;;5055396;28;20045;-71
2021/05/11 03:47:19;;;;;;;22.23;14.55;;;13.50;98.50;;;;;;5055604;28;20037;-71
2021/05/11 03:49:45;;;;;;;18.10;14.13;;;13.40;98.60;;;;;;5054909;28;20041;-71
2021/05/11 03:52:11;;;;;;;17.23;13.07;;;13.40;98.70;;;;;;5055656;28;20037;-71
2021/05/11 03:54:38;;;;;;;18.73;14.02;;;13.40;98.60;;;;;;5055450;28;20041;-71
2021/05/11 03:57:05;;;;;;;17.15;13.55;;;13.30;98.70;;;;;;5055479;28;20481;-71
2021/05/11 03:59:31;;;;;;;23.02;16.40;;;13.40;98.80;;;;;;5055404;28;20508;-71
2021/05/11 04:01:57;;;;;;;22.15;15.32;;;13.40;99.00;;;;;;5055532;28;20037;-71
2021/05/11 04:04:24;;;;;;;21.85;16.70;;;13.40;99.00;;;;;;5055243;28;20393;-72
2021/05/11 04:06:50;;;;;;;22.98;17.05;;;13.40;99.20;;;;;;5055218;28;20040;-71
2021/05/11 04:09:30;;;;;;;23.73;18.33;;;13.40;99.40;;;;;;5055930;28;20037;-71
2021/05/11 04:12:10;;;;;;;24.05;18.85;;;13.40;99.60;;;;;;5055986;28;20118;-71
2021/05/11 04:17:05;;;;;;;21.02;17.27;;;13.40;99.60;;;;;;5055342;28;20044;-71
2021/05/11 04:19:32;;;;;;;23.60;16.65;;;13.40;99.60;;;;;;5055481;28;20041;-71
2021/05/11 04:21:57;;;;;;;19.63;16.48;;;13.40;99.60;;;;;;5055063;28;20155;-71
2021/05/11 04:24:25;;;;;;;17.13;14.57;;;13.40;99.50;;;;;;5054645;28;20037;-71
2021/05/11 04:26:52;;;;;;;18.77;15.35;;;13.40;99.40;;;;;;5055496;28;20040;-71
2021/05/11 04:29:17;;;;;;;18.70;15.73;;;13.40;99.60;;;;;;5055275;28;20091;-71
2021/05/11 04:31:43;;;;;;;21.75;16.55;;;13.40;99.50;;;;;;5055227;28;20394;-71
2021/05/11 04:34:09;;;;;;;16.27;13.20;;;13.30;99.60;;;;;;5037563;28;20536;-71
2021/05/11 04:36:34;;;;;;;18.63;15.07;;;13.30;99.70;;;;;;5054439;28;20033;-71
2021/05/11 04:39:00;;;;;;;20.13;16.15;;;13.30;99.70;;;;;;5055405;28;20586;-71
2021/05/11 04:41:26;;;;;;;21.42;14.98;;;13.30;99.70;;;;;;5055401;28;20041;-71
2021/05/11 04:43:52;;;;;;;14.40;12.75;;;13.30;99.70;;;;;;5054837;28;20041;-71
2021/05/11 04:48:47;;;;;;;19.92;13.23;;;13.40;99.60;;;;;;5054924;28;20033;-71
2021/05/11 04:51:13;;;;;;;15.90;11.93;;;13.40;99.50;;;;;;5055302;28;20037;-71
2021/05/11 04:53:39;;;;;;;13.15;11.30;;;13.30;99.60;;;;;;5054470;28;20037;-71
2021/05/11 04:56:05;;;;;;;13.10;10.70;;;13.30;99.40;;;;;;5053953;28;20044;-71
2021/05/11 04:58:31;;;;;;;12.65;10.77;;;13.30;99.30;;;;;;5054963;28;20045;-71
2021/05/11 05:01:01;;;;;;;14.10;11.88;;;13.40;99.20;;;;;;5053678;28;20041;-71
2021/05/11 05:03:32;;;;;;;16.73;11.57;;;13.40;98.90;;;;;;5054457;28;20045;-71
2021/05/11 05:05:58;;;;;;;12.13;10.27;;;13.50;98.60;;;;;;5053903;28;20041;-71
2021/05/11 05:08:24;;;;;;;13.32;11.57;;;13.50;98.70;;;;;;5054893;28;20090;-71
2021/05/11 05:10:50;;;;;;;13.50;12.10;;;13.50;98.80;;;;;;5054074;28;20464;-71
2021/05/11 05:13:25;;;;;;;13.75;11.10;;;13.50;98.80;;;;;;5054401;28;20037;-71
2021/05/11 05:15:57;;;;;;;11.05;9.18;;;13.50;98.90;;;;;;5053907;28;20037;-71
2021/05/11 05:18:28;;;;;;;10.70;8.82;;;13.50;98.80;;;;;;5053881;28;20127;-71
2021/05/11 05:20:55;;;;;;;12.13;8.70;;;13.50;98.60;;;;;;5054693;28;20174;-71
2021/05/11 05:23:27;;;;;;;11.20;8.93;;;13.50;98.50;;;;;;5054205;28;20120;-71
2021/05/11 05:26:11;;;;;;;11.60;8.95;;;13.50;98.70;;;;;;5053539;28;20041;-71
2021/05/11 05:28:40;;;;;;;12.68;10.48;;;13.40;98.80;;;;;;5053895;28;20052;-71
2021/05/11 05:31:06;;;;;;;12.93;10.90;;;13.40;98.90;;;;;;5053824;28;20043;-71
2021/05/11 05:33:38;;;;;;;14.55;11.80;;;13.40;99.00;;;;;;5053685;28;20048;-71
2021/05/11 05:36:08;;;;;;;12.02;10.05;;;13.40;99.10;;;;;;5053285;28;20048;-71
2021/05/11 05:38:36;;;;;;;14.55;11.93;;;13.40;99.20;;;;;;5054064;28;20095;-71
2021/05/11 05:41:05;;;;;;;13.00;11.45;;;13.40;99.30;;;;;;5054037;28;20044;-71
2021/05/11 05:43:32;;;;;;;13.30;11.90;;;13.50;99.30;;;;;;5053724;28;20095;-71
2021/05/11 05:45:58;;;;;;;12.20;9.93;;;13.50;99.40;;;;;;5053237;28;20377;-71
2021/05/11 05:48:26;;;;;;;11.38;10.15;;;13.50;99.40;;;;;;5053686;28;20037;-71
2021/05/11 05:51:00;;;;;;;10.90;9.60;;;13.60;99.30;;;;;;5053260;28;20041;-71
2021/05/11 05:53:37;;;;;;;9.63;7.70;;;13.60;99.30;;;;;;5054046;28;20144;-71
2021/05/11 05:56:04;;;;;;;10.40;6.45;;;13.60;99.20;;;;;;5053027;28;20138;-71
2021/05/11 05:58:34;;;;;;;9.50;5.75;;;13.60;99.10;;;;;;5053831;28;20052;-71
2021/05/11 06:01:06;;;;;;;6.82;4.88;;;13.60;99.00;;;;;;5053316;28;20037;-71
2021/05/11 06:06:14;;;;;;;3.92;3.33;;;13.50;99.00;;;;;;5053466;28;20101;-71
2021/05/11 06:08:47;;;;;;;4.57;3.83;;;13.60;98.90;;;;;;5053891;28;20040;-71
2021/05/11 06:11:28;;;;;;;7.15;3.88;;;13.60;98.80;;;;;;5035084;28;20037;-71
2021/05/11 06:14:07;;;;;;;4.50;3.00;;;13.60;98.60;;;;;;5053791;28;20037;-71
2021/05/11 06:19:18;;;;;;;3.63;3.00;;;13.60;98.20;;;;;;5053092;28;20060;-71
2021/05/11 06:21:44;;;;;;;5.00;3.05;;;13.60;98.30;;;;;;5053217;28;20466;-71
2021/05/11 06:24:11;;;;;;;4.55;3.13;;;13.60;98.00;;;;;;5053418;28;20478;-71
2021/05/11 06:26:37;;;;;;;7.32;4.47;;;13.60;98.20;;;;;;5052590;28;20131;-71
2021/05/11 06:29:07;;;;;;;8.20;4.95;;;13.80;98.00;;;;;;5053439;28;20040;-71
2021/05/11 06:31:33;;;;;;;8.95;5.97;;;13.80;98.00;;;;;;5053527;28;20040;-71
2021/05/11 06:33:59;;;;;;;8.00;4.47;;;13.80;98.00;;;;;;5052959;28;20037;-71
2021/05/11 06:36:25;;;;;;;6.97;5.18;;;13.80;98.00;;;;;;5052452;28;20094;-71
2021/05/11 06:38:51;;;;;;;5.93;5.07;;;13.70;98.20;;;;;;5053188;28;20045;-71
2021/05/11 06:41:17;;;;;;;6.97;5.93;;;13.70;98.00;;;;;;5053289;28;20041;-71
2021/05/11 06:43:44;;;;;;;6.70;5.18;;;13.70;97.90;;;;;;5053337;28;20497;-71
2021/05/11 06:53:40;;;;;;;4.90;3.22;;;13.70;97.40;;;;;;5053113;28;20115;-71
2021/05/11 06:56:08;;;;;;;6.10;3.40;;;13.70;97.20;;;;;;5052457;28;20033;-70
2021/05/11 06:58:34;;;;;;;5.43;3.45;;;13.70;97.10;;;;;;5053351;28;20126;-70
2021/05/11 07:00:59;;;;;;;4.57;3.30;;;13.70;97.30;;;;;;5052711;28;20083;-70
2021/05/11 07:03:25;;;;;;;5.28;4.00;;;13.70;97.50;;;;;;5053147;28;20039;-70
2021/05/11 07:05:52;;;;;;;8.27;3.58;;;13.70;97.50;;;;;;5052706;28;20037;-71
2021/05/11 07:08:31;;;;;;;5.13;3.70;;;13.80;97.30;;;;;;5052905;28;20107;-70
2021/05/11 07:11:00;;;;;;;9.88;4.15;;;13.80;97.50;;;;;;5053227;28;20529;-71
2021/05/11 07:13:25;;;;;;;8.40;5.28;;;13.70;97.70;;;;;;5053230;28;20069;-71
2021/05/11 07:15:51;;;;;;;9.90;6.82;;;13.70;97.80;;;;;;5052559;28;20536;-71
2021/05/11 07:18:19;;;;;;;10.43;7.55;;;13.80;97.90;;;;;;5052337;28;20051;-70
2021/05/11 07:20:48;;;;;;;15.43;10.20;;;13.80;97.90;;;;;;5053173;28;20033;-70
2021/05/11 07:23:19;;;;;;;15.20;9.32;;;13.80;98.10;;;;;;5053119;28;20033;-70
2021/05/11 07:28:34;;;;;;;7.22;6.18;;;13.90;98.30;;;;;;5055970;28;20433;-70
2021/05/11 07:31:05;;;;;;;8.90;6.15;;;13.90;98.20;;;;;;5056061;28;20116;-70
2021/05/11 07:36:06;;;;;;;10.80;7.20;;;13.90;98.20;;;;;;5055452;28;20045;-71
2021/05/11 07:38:33;;;;;;;11.07;7.32;;;13.90;98.40;;;;;;5055915;28;20117;-70
2021/05/11 07:40:59;;;;;;;8.85;7.53;;;14.00;98.40;;;;;;5056033;28;20044;-70
2021/05/11 07:43:26;;;;;;;10.73;7.75;;;13.90;98.50;;;;;;5055760;28;20033;-70
2021/05/11 08:17:50;;;;;;;13.55;10.80;;;14.60;97.30;;;;;;5055742;28;20043;-71
2021/05/11 08:28:43;;;;;;;8.63;6.60;;;14.90;96.50;;;;;;5055152;28;20420;-69
2021/05/11 08:31:10;;;;;;;7.25;5.35;;;15.00;95.80;;;;;;5055165;28;20037;-70
2021/05/11 08:33:36;;;;;;;6.10;4.50;;;14.90;95.40;;;;;;5054908;28;20041;-70
2021/05/11 08:36:03;;;;;;;6.00;4.15;;;15.00;95.50;;;;;;5054831;28;20412;-70
2021/05/11 08:38:29;;;;;;;4.22;2.97;;;15.00;95.40;;;;;;5055094;28;20037;-70
2021/05/11 08:40:55;;;;;;;5.82;3.25;;;15.00;95.20;;;;;;5055408;28;20047;-70
2021/05/11 08:43:37;;;;;;;3.65;3.17;;;15.10;95.00;;;;;;5054802;28;20041;-70
2021/05/11 08:46:05;;;;;;;6.43;3.20;;;15.10;94.80;;;;;;5054834;28;20523;-70
2021/05/11 08:48:31;;;;;;;3.92;3.35;;;15.10;95.10;;;;;;5037380;28;20065;-70
2021/05/11 08:51:03;;;;;;;4.72;2.78;;;15.10;95.10;;;;;;5036691;28;20048;-70
2021/05/11 08:53:52;;;;;;;3.78;2.97;;;15.10;95.00;;;;;;5054517;28;20377;-70
2021/05/11 09:04:47;;;;;;;2.65;1.67;;;15.70;93.90;;;;;;5054461;28;20064;-70
2021/05/11 09:24:48;;;;;;;3.65;1.70;;;16.50;90.30;;;;;;5054454;28;20064;-71
2021/05/11 09:32:49;;;;;;;3.03;1.02;;;16.60;89.00;;;;;;5053622;28;20494;-71
2021/05/11 09:45:04;;;;;;;1.65;0.73;;;16.40;87.90;;;;;;5052674;28;20081;-71
2021/05/11 10:27:08;;;;;;;2.05;0.85;;;16.50;90.00;;;;;;5052877;28;20488;-71
2021/05/11 10:47:01;;;;;;;1.80;1.50;;;16.60;91.00;;;;;;5052418;28;20060;-71
2021/05/11 10:49:28;;;;;;;2.05;1.67;;;16.60;90.50;;;;;;5052731;28;20037;-71
2021/05/11 10:52:21;;;;;;;2.92;2.10;;;16.40;90.80;;;;;;5053531;28;20381;-72
2021/05/11 10:55:11;;;;;;;2.03;1.77;;;16.40;91.00;;;;;;5052539;28;20591;-71
2021/05/11 10:57:54;;;;;;;3.88;2.17;;;16.40;91.30;;;;;;5052912;28;20049;-71
2021/05/11 11:00:28;;;;;;;2.55;2.08;;;16.40;91.30;;;;;;5056707;28;20551;-71
2021/05/11 11:03:14;;;;;;;3.65;1.70;;;16.40;91.00;;;;;;5057066;28;20043;-71
2021/05/11 11:05:52;;;;;;;33.75;6.30;;;16.50;91.10;;;;;;5056258;28;20044;-71
2021/05/11 11:08:38;;;;;;;1.65;1.23;;;16.70;90.70;;;;;;5056459;28;20041;-71
2021/05/11 11:11:21;;;;;;;2.10;1.48;;;16.80;90.40;;;;;;5056870;28;20045;-71
2021/05/11 11:13:49;;;;;;;2.28;1.83;;;16.90;90.10;;;;;;5056786;28;20033;-71
2021/05/11 11:16:15;;;;;;;2.38;1.55;;;17.10;90.00;;;;;;5055856;28;20091;-70
2021/05/11 11:18:41;;;;;;;2.28;1.70;;;17.00;90.50;;;;;;5056349;28;20037;-70
2021/05/11 11:23:45;;;;;;;2.22;1.40;;;17.10;89.70;;;;;;5056704;28;20090;-71
2021/05/11 11:26:13;;;;;;;2.65;1.35;;;17.10;90.10;;;;;;5055928;28;20533;-71
2021/05/11 11:28:40;;;;;;;3.15;1.45;;;17.10;88.90;;;;;;5056167;28;20083;-71
2021/05/11 11:31:26;;;;;;;1.63;1.40;;;17.10;88.90;;;;;;5056717;28;20087;-70
2021/05/11 11:33:52;;;;;;;2.53;1.30;;;17.10;88.80;;;;;;5056104;28;20045;-70
2021/05/11 11:36:28;;;;;;;3.28;1.25;;;17.10;87.30;;;;;;5055592;28;20037;-71
2021/05/11 11:38:56;;;;;;;2.67;1.27;;;17.10;86.80;;;;;;5056015;28;20469;-70
2021/05/11 11:41:24;;;;;;;1.88;1.27;;;17.10;87.40;;;;;;5055883;28;20507;-71
2021/05/11 11:43:52;;;;;;;2.95;1.35;;;17.10;88.40;;;;;;5056405;28;20484;-71
2021/05/11 11:46:25;;;;;;;2.33;1.02;;;17.00;88.00;;;;;;5055452;28;20060;-71
2021/05/11 11:49:04;;;;;;;2.03;1.10;;;17.10;87.00;;;;;;5055646;28;20473;-71
2021/05/11 11:51:33;;;;;;;3.38;1.00;;;17.00;87.50;;;;;;5056035;28;20037;-71
2021/05/11 11:54:27;;;;;;;2.08;1.10;;;17.10;87.20;;;;;;5055977;28;20067;-70
2021/05/11 11:59:34;;;;;;;3.25;1.23;;;17.00;86.40;;;;;;5055663;28;20061;-71
2021/05/11 12:02:02;;;;;;;1.38;0.90;;;17.00;86.60;;;;;;5055471;28;20404;-71
2021/05/11 12:04:28;;;;;;;1.75;0.95;;;17.10;87.50;;;;;;5055060;28;20041;-71
2021/05/11 12:07:00;;;;;;;2.38;1.33;;;17.00;87.50;;;;;;5055243;28;20068;-71
2021/05/11 12:09:26;;;;;;;1.80;1.27;;;16.80;87.70;;;;;;5054619;28;20037;-71
2021/05/11 12:11:52;;;;;;;2.50;1.40;;;16.80;88.20;;;;;;5055328;28;20098;-71
2021/05/11 12:14:18;;;;;;;3.63;1.83;;;16.70;88.70;;;;;;5055680;28;20424;-72
2021/05/11 12:16:46;;;;;;;2.00;1.67;;;16.70;89.00;;;;;;5054764;28;20060;-71
2021/05/11 12:19:18;;;;;;;4.80;1.50;;;16.70;89.40;;;;;;5055844;28;20462;-71
2021/05/11 12:22:01;;;;;;;2.47;1.42;;;16.70;90.00;;;;;;5055124;28;20477;-71
2021/05/11 12:24:30;;;;;;;1.80;1.30;;;16.70;90.20;;;;;;5054772;28;20079;-71
2021/05/11 12:27:16;;;;;;;1.90;1.48;;;16.80;89.90;;;;;;5055440;28;20033;-71
2021/05/11 12:30:04;;;;;;;2.92;1.55;;;16.80;89.50;;;;;;5055569;28;20080;-71
2021/05/11 12:32:32;;;;;;;5.97;1.50;;;16.80;89.90;;;;;;5055196;28;20464;-71
2021/05/11 12:35:28;;;;;;;2.00;1.27;;;16.70;90.00;;;;;;5054601;28;20044;-71
2021/05/11 12:37:59;;;;;;;4.18;1.88;;;16.70;88.90;;;;;;5053324;28;20403;-71
2021/05/11 12:40:41;;;;;;;1.63;1.20;;;16.70;89.20;;;;;;5055287;28;20041;-71
2021/05/11 12:43:07;;;;;;;2.28;1.15;;;16.70;88.20;;;;;;5054972;28;20044;-71
2021/05/11 12:45:49;;;;;;;1.83;1.00;;;16.70;88.50;;;;;;5054385;28;20504;-70
2021/05/11 12:48:14;;;;;;;1.95;1.40;;;16.70;89.10;;;;;;5055265;28;20047;-70
2021/05/11 12:50:42;;;;;;;2.13;1.00;;;16.70;88.60;;;;;;5054470;28;20041;-71
2021/05/11 12:58:36;;;;;;;3.60;1.60;;;16.40;88.80;;;;;;5054475;28;20099;-70
2021/05/11 13:01:26;;;;;;;3.30;1.58;;;16.30;89.40;;;;;;5054471;28;20547;-71
2021/05/11 13:15:33;;;;;;;5.00;2.38;;;16.00;92.30;;;;;;5054006;28;20037;-71
2021/05/11 13:20:59;;;;;;;3.65;2.30;;;15.80;93.60;;;;;;5053712;28;20508;-71
2021/05/11 13:26:12;;;;;;;4.60;1.90;;;15.50;94.00;;;;;;5053644;28;20041;-71
2021/05/11 13:28:54;;;;;;;4.30;1.85;;;15.50;93.60;;;;;;5053903;28;20061;-71
2021/05/11 13:33:51;;;;;;;3.05;1.98;;;15.40;94.10;;;;;;5053803;28;20489;-71
2021/05/11 13:36:17;;;;;;;2.15;1.95;;;15.30;94.00;;;;;;5053255;28;20048;-71
2021/05/11 13:38:43;;;;;;;2.85;2.08;;;15.40;94.10;;;;;;5054416;28;20121;-71
2021/05/11 13:41:09;;;;;;;2.83;2.05;;;15.40;94.30;;;;;;5053763;28;20071;-71
2021/05/11 13:43:35;;;;;;;5.70;2.38;;;15.30;94.90;;;;;;5053830;28;20041;-70
2021/05/11 13:46:00;;;;;;;3.35;2.67;;;15.40;94.90;;;;;;5053240;28;20047;-71
2021/05/11 13:48:33;;;;;;;3.10;2.65;;;15.30;94.90;;;;;;5054046;28;20116;-71
2021/05/11 13:51:18;;;;;;;2.40;2.10;;;15.20;95.20;;;;;;5053350;28;20517;-71
2021/05/11 13:53:53;;;;;;;3.30;2.78;;;15.10;94.90;;;;;;5053433;28;20037;-71
2021/05/11 13:56:39;;;;;;;3.47;2.15;;;15.00;95.40;;;;;;5053169;28;20061;-71
2021/05/11 14:04:30;;;;;;;2.30;2.10;;;14.50;95.90;;;;;;5053300;28;20167;-71
2021/05/11 14:06:56;;;;;;;2.85;1.70;;;14.60;96.00;;;;;;5053017;28;20500;-70
2021/05/11 14:09:22;;;;;;;2.63;1.92;;;14.60;96.00;;;;;;5053238;28;20473;-70
2021/05/11 14:11:48;;;;;;;3.42;2.38;;;14.60;95.80;;;;;;5053194;28;20114;-70
2021/05/11 14:14:14;;;;;;;2.83;1.83;;;14.60;96.00;;;;;;5053829;28;20071;-71
2021/05/11 14:16:42;;;;;;;2.20;1.73;;;14.60;96.00;;;;;;5052663;28;20037;-71
2021/05/11 14:19:09;;;;;;;3.42;1.60;;;14.50;95.90;;;;;;5053286;28;20114;-70
2021/05/11 14:21:38;;;;;;;3.08;1.98;;;14.50;95.80;;;;;;5053755;28;20037;-70
2021/05/11 14:24:04;;;;;;;2.65;1.30;;;14.50;95.90;;;;;;5053902;28;20064;-70
2021/05/11 14:26:30;;;;;;;3.85;1.73;;;14.50;95.80;;;;;;5052846;28;20052;-71
2021/05/11 14:28:56;;;;;;;2.40;1.60;;;14.40;96.10;;;;;;5053250;28;20029;-70
2021/05/11 14:31:24;;;;;;;2.38;1.65;;;14.30;96.60;;;;;;5053132;28;20033;-71
2021/05/11 14:33:50;;;;;;;2.38;1.88;;;14.30;96.50;;;;;;5056486;28;20036;-70
2021/05/11 14:36:15;;;;;;;2.22;1.85;;;14.30;96.80;;;;;;5057111;28;20037;-71
2021/05/11 14:38:41;;;;;;;2.97;1.75;;;14.30;96.40;;;;;;5057094;28;20098;-70
2021/05/11 14:41:08;;;;;;;3.80;1.80;;;14.30;96.30;;;;;;5057589;28;20063;-71
2021/05/11 14:43:35;;;;;;;5.22;1.80;;;14.40;96.50;;;;;;5057007;28;20033;-70
2021/05/11 14:46:03;;;;;;;5.18;1.75;;;14.30;96.60;;;;;;5056740;28;20051;-70
2021/05/11 14:48:30;;;;;;;3.78;1.90;;;14.30;96.60;;;;;;5056867;28;20559;-70
2021/05/11 14:50:57;;;;;;;2.92;1.63;;;14.40;96.70;;;;;;5057191;28;20044;-70
2021/05/11 14:53:23;;;;;;;3.13;2.20;;;14.30;96.70;;;;;;5056825;28;20037;-71
2021/05/11 14:55:48;;;;;;;3.08;2.30;;;14.30;96.80;;;;;;5056461;28;20045;-71
2021/05/11 14:58:14;;;;;;;4.75;2.50;;;14.20;97.00;;;;;;5056556;28;20037;-71
2021/05/11 15:00:40;;;;;;;5.82;3.25;;;14.40;97.20;;;;;;5056615;28;20037;-71
2021/05/11 15:03:06;;;;;;;2.72;1.95;;;14.40;97.40;;;;;;5056670;28;20029;-70
2021/05/11 15:05:32;;;;;;;2.97;2.67;;;14.50;96.90;;;;;;5056209;28;20546;-70
2021/05/11 15:07:57;;;;;;;2.20;1.98;;;14.50;95.90;;;;;;5056529;28;20048;-71
2021/05/11 15:10:23;;;;;;;3.40;1.60;;;14.50;96.70;;;;;;5056644;28;20533;-71
2021/05/11 15:12:50;;;;;;;3.33;2.58;;;14.50;96.30;;;;;;5056496;28;20461;-71
2021/05/11 15:15:20;;;;;;;3.00;1.63;;;14.40;96.10;;;;;;5056154;28;20117;-71
2021/05/11 15:20:13;;;;;;;2.55;1.60;;;14.40;96.30;;;;;;5056500;28;20033;-71
2021/05/11 15:22:39;;;;;;;3.17;1.60;;;14.30;96.20;;;;;;5056085;28;20489;-71
2021/05/11 15:25:06;;;;;;;2.83;1.42;;;14.30;96.30;;;;;;5056193;28;20037;-70
2021/05/11 15:27:33;;;;;;;3.25;1.63;;;14.40;95.90;;;;;;5038606;28;20067;-71
2021/05/11 15:30:04;;;;;;;3.35;1.52;;;14.30;96.00;;;;;;5056151;28;20049;-71
2021/05/11 15:32:38;;;;;;;3.00;1.30;;;14.30;96.00;;;;;;5056631;28;20087;-71
2021/05/11 15:35:06;;;;;;;6.78;1.83;;;14.20;95.30;;;;;;5055728;28;20059;-71
2021/05/11 15:37:32;;;;;;;4.93;1.90;;;14.30;94.70;;;;;;5056066;28;20436;-71
2021/05/11 15:39:58;;;;;;;2.40;1.33;;;14.20;95.20;;;;;;5056234;28;20094;-71
2021/05/11 15:42:23;;;;;;;2.47;1.90;;;14.20;95.30;;;;;;5056049;28;20064;-73
2021/05/11 15:44:49;;;;;;;3.35;1.40;;;14.30;95.00;;;;;;5054585;28;20033;-70
2021/05/11 15:47:16;;;;;;;3.55;1.83;;;14.20;95.10;;;;;;5055661;28;20500;-70
2021/05/11 15:49:45;;;;;;;6.03;2.25;;;14.20;95.40;;;;;;5055863;28;20041;-71
2021/05/11 15:52:11;;;;;;;3.70;2.30;;;14.20;95.50;;;;;;5056346;28;20048;-71
2021/05/11 15:54:37;;;;;;;3.72;1.92;;;14.30;94.90;;;;;;5055267;28;20029;-71
2021/05/11 15:57:03;;;;;;;3.85;1.70;;;14.20;94.90;;;;;;5055692;28;20120;-70
2021/05/11 15:59:29;;;;;;;4.75;2.40;;;14.20;94.70;;;;;;5055053;28;20052;-71
2021/05/11 16:01:55;;;;;;;5.50;2.17;;;14.10;94.90;;;;;;5055478;28;20050;-70
2021/05/11 16:04:20;;;;;;;4.45;1.80;;;14.10;94.80;;;;;;5055196;28;20037;-71
2021/05/11 16:06:46;;;;;;;3.88;1.75;;;14.10;94.90;;;;;;5055134;28;20045;-71
2021/05/11 16:09:13;;;;;;;4.25;2.03;;;14.10;94.80;;;;;;5055373;28;20061;-71
2021/05/11 16:11:38;;;;;;;3.80;2.05;;;14.10;94.40;;;;;;5055569;28;20389;-70
2021/05/11 16:14:04;;;;;;;2.92;2.20;;;14.20;94.20;;;;;;5055209;28;20048;-70
2021/05/11 16:16:31;;;;;;;3.10;2.30;;;13.90;94.60;;;;;;5055318;28;20044;-70
2021/05/11 16:18:58;;;;;;;3.83;1.98;;;13.90;94.70;;;;;;5055586;28;20037;-71
2021/05/11 16:21:24;;;;;;;7.10;2.83;;;13.80;95.00;;;;;;5055218;28;20118;-70
2021/05/11 16:23:51;;;;;;;4.50;2.42;;;14.10;94.30;;;;;;5055246;28;20135;-71
2021/05/11 16:26:17;;;;;;;5.32;3.40;;;14.00;94.60;;;;;;5054577;28;20040;-70
2021/05/11 16:28:43;;;;;;;5.65;2.85;;;14.00;94.90;;;;;;5055108;28;20059;-71
2021/05/11 16:31:08;;;;;;;5.13;2.50;;;13.90;94.90;;;;;;5055539;28;20488;-70
2021/05/11 16:33:35;;;;;;;5.88;2.95;;;13.90;95.00;;;;;;5055147;28;20033;-70
2021/05/11 16:36:01;;;;;;;3.63;2.78;;;13.80;95.10;;;;;;5054393;28;20723;-70
2021/05/11 16:38:27;;;;;;;6.93;3.17;;;13.90;95.10;;;;;;5055156;28;20044;-70
2021/05/11 16:40:54;;;;;;;4.93;3.72;;;13.90;95.10;;;;;;5054722;28;20047;-70
2021/05/11 16:43:22;;;;;;;6.57;2.80;;;13.90;95.00;;;;;;5054628;28;20037;-70
2021/05/11 16:45:48;;;;;;;4.65;2.60;;;13.90;94.90;;;;;;5054449;28;20045;-70
2021/05/11 16:48:16;;;;;;;6.32;3.42;;;13.90;95.10;;;;;;5054512;28;20047;-70
2021/05/11 16:50:42;;;;;;;8.10;3.08;;;13.80;95.10;;;;;;5054431;28;20044;-70
2021/05/11 16:53:13;;;;;;;6.50;3.22;;;13.80;95.10;;;;;;5054807;28;20045;-70
2021/05/11 16:55:39;;;;;;;7.18;2.90;;;13.90;94.90;;;;;;5054579;28;20051;-71
2021/05/11 16:58:05;;;;;;;7.63;3.58;;;13.70;95.10;;;;;;5054843;28;20045;-71
2021/05/11 17:00:32;;;;;;;6.45;3.20;;;13.70;95.00;;;;;;5054710;28;20041;-71
2021/05/11 17:02:58;;;;;;;5.28;3.78;;;13.70;95.00;;;;;;5054861;28;20086;-70